Terminal Aerodrome Forecast
Issued by NWS Sioux Falls, SD

Home | Current Version | Previous Version | Graphics & Text | Print | Product List | Glossary Off
Versions: 1 2 3 4 5 6 7 8 9 10 11 12 13 14 15

507
FTUS43 KFSD 270109 AAA
TAFHON
TAF AMD
KHON 270109Z 2701/2724 35012KT P6SM SCT022 OVC040
      TEMPO 2704/2706 BKN022
     FM270600 34008KT P6SM OVC025
     FM271500 34012KT P6SM BKN025
     FM271600 34011KT P6SM SCT035=

USA.gov is the U.S. government's official web portal to all federal, state and local government web resources and services.